Latest Weather Observations for St Kilda Harbour RMYS

IDV60901

Issued at 3:11 pm EDT Saturday 21 January 2017 (issued every 10 minutes, with the page automatically refreshed every 10 minutes)

About weather observations | Map of Melbourne area stations | Latest observations for Melbourne area | Other Formats
Station Details ID: 086220 Name: ST KILDA HARBOUR - RMYS Lat: -37.86 Lon: 144.96 Height: 6.4 m
Data from the previous 72 hours. | See also: Recent months for locations in Victoria
Date/Time
EDT
Temp
°C
App
Temp
°C
Dew
Point
°C
Rel
Hum
%
Delta-T
°C
Wind Press
QNH
hPa
Press
MSL
hPa
Rain since
9am
mm
Dir  Spd
km/h
Gust
km/h
Spd
kts
Gust
kts
21/03:00pm - - - - - S 20 26 11 14 - - -
21/02:30pm - - - - - S 22 26 12 14 - - -
21/02:00pm - - - - - S 20 26 11 14 - - -
21/01:30pm - - - - - SSW 20 28 11 15 - - -
21/01:00pm - - - - - SSW 24 32 13 17 - - -
21/12:30pm - - - - - SSW 22 28 12 15 - - -
21/12:00pm - - - - - S 19 26 10 14 - - -
21/11:30am - - - - - SSW 17 20 9 11 - - -
21/11:00am - - - - - SSW 19 22 10 12 - - -
21/10:30am - - - - - S 19 24 10 13 - - -
21/10:00am - - - - - SSW 20 26 11 14 - - -
21/09:30am - - - - - SW 28 37 15 20 - - -
21/09:00am - - - - - SW 20 26 11 14 - - -
21/08:30am - - - - - WSW 30 35 16 19 - - -
21/08:00am - - - - - WSW 26 32 14 17 - - -
21/07:30am - - - - - SSW 24 32 13 17 - - -
21/07:00am - - - - - SW 22 32 12 17 - - -
21/06:30am - - - - - WSW 24 32 13 17 - - -
21/06:00am - - - - - SSW 20 28 11 15 - - -
21/05:30am - - - - - SSW 24 30 13 16 - - -
21/05:00am - - - - - SSW 24 30 13 16 - - -
21/04:30am - - - - - S 24 30 13 16 - - -
21/04:00am - - - - - S 20 26 11 14 - - -
21/03:30am - - - - - S 30 37 16 20 - - -
21/03:00am - - - - - S 28 37 15 20 - - -
21/02:30am - - - - - S 26 33 14 18 - - -
21/02:00am - - - - - S 28 37 15 20 - - -
21/01:30am - - - - - S 26 35 14 19 - - -
21/01:00am - - - - - S 33 41 18 22 - - -
21/12:30am - - - - - S 28 37 15 20 - - -
21/12:00am - - - - - SSW 33 41 18 22 - - -
 
Date/Time
EDT
Temp
°C
App
Temp
°C
Dew
Point
°C
Rel
Hum
%
Delta-T
°C
Wind Press
QNH
hPa
Press
MSL
hPa
Rain since
9am
mm
Dir  Spd
km/h
Gust
km/h
Spd
kts
Gust
kts
20/11:30pm - - - - - SSW 33 43 18 23 - - -
20/11:00pm - - - - - SSW 33 43 18 23 - - -
20/10:30pm - - - - - SSW 35 44 19 24 - - -
20/10:00pm - - - - - SSW 39 46 21 25 - - -
20/09:30pm - - - - - SSW 41 48 22 26 - - -
20/09:00pm - - - - - SSW 39 44 21 24 - - -
20/08:30pm - - - - - SSW 43 48 23 26 - - -
20/08:00pm - - - - - SSW 43 48 23 26 - - -
20/07:30pm - - - - - SSW 41 48 22 26 - - -
20/07:00pm - - - - - SSW 33 48 18 26 - - -
20/06:53pm - - - - - SSW 30 48 16 26 - - -
20/06:30pm - - - - - SSW 35 48 19 26 - - -
20/06:00pm - - - - - SSW 28 48 15 26 - - -
20/05:30pm - - - - - SSW 28 48 15 26 - - -
20/05:03pm - - - - - SSW 30 48 16 26 - - -
20/05:00pm - - - - - SSW 32 48 17 26 - - -
20/04:30pm - - - - - SSW 28 48 15 26 - - -
20/04:07pm - - - - - SW 28 48 15 26 - - -
20/04:00pm - - - - - SW 32 48 17 26 - - -
20/03:30pm - - - - - SSW 30 48 16 26 - - -
20/03:07pm - - - - - SSW 28 48 15 26 - - -
20/03:00pm - - - - - SSW 20 48 11 26 - - -
20/02:35pm - - - - - SSW 26 48 14 26 - - -
20/02:30pm - - - - - SW 20 48 11 26 - - -
20/02:00pm - - - - - SW 39 46 21 25 - - -
20/01:30pm - - - - - SW 39 48 21 26 - - -
20/01:00pm - - - - - SSW 41 48 22 26 - - -
20/12:30pm - - - - - SW 35 48 19 26 - - -
20/12:19pm - - - - - SW 30 48 16 26 - - -
20/12:00pm - - - - - SW 39 48 21 26 - - -
20/11:30am - - - - - WSW 41 48 22 26 - - -
20/11:00am - - - - - WSW 41 48 22 26 - - -
20/10:30am - - - - - W 32 43 17 23 - - -
20/10:00am - - - - - WSW 28 48 15 26 - - -
20/09:30am - - - - - WSW 39 48 21 26 - - -
20/09:13am - - - - - W 24 46 13 25 - - -
20/09:00am - - - - - NNW 26 35 14 19 - - -
20/08:30am - - - - - NNW 30 46 16 25 - - -
20/08:00am - - - - - NW 28 39 15 21 - - -
20/07:30am - - - - - N 28 43 15 23 - - -
20/07:00am - - - - - N 22 32 12 17 - - -
20/06:30am - - - - - NNE 20 33 11 18 - - -
20/06:00am - - - - - NNE 24 35 13 19 - - -
20/05:30am - - - - - NE 17 24 9 13 - - -
20/05:00am - - - - - ESE 4 6 2 3 - - -
20/04:30am - - - - - SSE 7 13 4 7 - - -
20/04:00am - - - - - WSW 9 13 5 7 - - -
20/03:30am - - - - - SSW 15 24 8 13 - - -
20/03:00am - - - - - SSW 30 37 16 20 - - -
20/02:30am - - - - - SW 13 46 7 25 - - -
20/02:00am - - - - - WSW 35 44 19 24 - - -
20/01:53am - - - - - W 24 37 13 20 - - -
20/01:30am - - - - - NW 6 9 3 5 - - -
20/01:00am - - - - - NNE 6 7 3 4 - - -
20/12:30am - - - - - WNW 7 11 4 6 - - -
20/12:00am - - - - - WNW 13 17 7 9 - - -
 
Date/Time
EDT
Temp
°C
App
Temp
°C
Dew
Point
°C
Rel
Hum
%
Delta-T
°C
Wind Press
QNH
hPa
Press
MSL
hPa
Rain since
9am
mm
Dir  Spd
km/h
Gust
km/h
Spd
kts
Gust
kts
19/11:30pm - - - - - W 15 19 8 10 - - -
19/11:00pm - - - - - WNW 13 15 7 8 - - -
19/10:30pm - - - - - WSW 9 13 5 7 - - -
19/10:00pm - - - - - WSW 7 13 4 7 - - -
19/09:30pm - - - - - WSW 6 7 3 4 - - -
19/09:00pm - - - - - SSE 7 11 4 6 - - -
19/08:30pm - - - - - S 13 17 7 9 - - -
19/08:00pm - - - - - S 19 20 10 11 - - -
19/07:30pm - - - - - S 20 24 11 13 - - -
19/07:00pm - - - - - S 22 24 12 13 - - -
19/06:30pm - - - - - SSW 22 26 12 14 - - -
19/06:00pm - - - - - SSW 20 22 11 12 - - -
19/05:30pm - - - - - SSW 19 24 10 13 - - -
19/05:00pm - - - - - SSW 20 22 11 12 - - -
19/04:30pm - - - - - SSW 20 24 11 13 - - -
19/04:00pm - - - - - SSW 19 22 10 12 - - -
19/03:30pm - - - - - SSW 17 20 9 11 - - -
19/03:00pm - - - - - SW 17 20 9 11 - - -
19/02:30pm - - - - - SW 20 22 11 12 - - -
19/02:00pm - - - - - SW 22 28 12 15 - - -
19/01:30pm - - - - - SW 19 24 10 13 - - -
19/01:00pm - - - - - SSW 20 26 11 14 - - -
19/12:30pm - - - - - SSW 22 28 12 15 - - -
19/12:00pm - - - - - SSW 24 30 13 16 - - -
19/11:30am - - - - - SSW 22 28 12 15 - - -
19/11:00am - - - - - SSW 20 24 11 13 - - -
19/10:30am - - - - - SSE 15 22 8 12 - - -
19/10:00am - - - - - SE 17 26 9 14 - - -
19/09:30am - - - - - SSE 15 22 8 12 - - -
19/09:00am - - - - - SE 11 19 6 10 - - -
19/08:30am - - - - - SE 11 15 6 8 - - -
19/08:00am - - - - - SE 9 13 5 7 - - -
19/07:30am - - - - - SE 9 11 5 6 - - -
19/07:00am - - - - - SE 9 13 5 7 - - -
19/06:30am - - - - - SE 11 15 6 8 - - -
19/06:00am - - - - - SE 9 13 5 7 - - -
19/05:30am - - - - - ESE 7 11 4 6 - - -
19/05:00am - - - - - SE 9 13 5 7 - - -
19/04:30am - - - - - SE 7 11 4 6 - - -
19/04:00am - - - - - SE 7 11 4 6 - - -
19/03:30am - - - - - SE 11 13 6 7 - - -
19/03:00am - - - - - ESE 9 13 5 7 - - -
19/02:30am - - - - - E 11 17 6 9 - - -
19/02:00am - - - - - ESE 11 19 6 10 - - -
19/01:30am - - - - - ESE 11 17 6 9 - - -
19/01:00am - - - - - ESE 13 24 7 13 - - -
19/12:30am - - - - - SE 17 20 9 11 - - -
19/12:00am - - - - - SE 19 24 10 13 - - -
 
Date/Time
EDT
Temp
°C
App
Temp
°C
Dew
Point
°C
Rel
Hum
%
Delta-T
°C
Wind Press
QNH
hPa
Press
MSL
hPa
Rain since
9am
mm
Dir  Spd
km/h
Gust
km/h
Spd
kts
Gust
kts
18/11:30pm - - - - - SE 20 28 11 15 - - -
18/11:00pm - - - - - SE 19 26 10 14 - - -
18/10:30pm - - - - - SE 22 33 12 18 - - -
18/10:00pm - - - - - SE 24 32 13 17 - - -
18/09:30pm - - - - - SE 26 35 14 19 - - -
18/09:00pm - - - - - SE 24 30 13 16 - - -
18/08:30pm - - - - - SSE 30 37 16 20 - - -
18/08:00pm - - - - - SSE 30 39 16 21 - - -
18/07:30pm - - - - - S 30 39 16 21 - - -
18/07:00pm - - - - - S 35 44 19 24 - - -
18/06:30pm - - - - - S 35 43 19 23 - - -
18/06:00pm - - - - - S 39 46 21 25 - - -
18/05:30pm - - - - - S 39 46 21 25 - - -
18/05:00pm - - - - - S 41 46 22 25 - - -
18/04:30pm - - - - - S 39 46 21 25 - - -
18/04:00pm - - - - - S 35 43 19 23 - - -
18/03:30pm - - - - - S 41 48 22 26 - - -

Latest Capital City Observations: Canberra | Sydney | Melbourne | Brisbane | Adelaide | Perth | Hobart | Darwin

Other Formats:

Comma delimited format used in spreadsheet applications
http://www.bom.gov.au/fwo/IDV60901/IDV60901.95864.axf

JavaScript Object Notation format (JSON) in row-major order
http://www.bom.gov.au/fwo/IDV60901/IDV60901.95864.json